sensor_id;sensor_type;location;lat;lon;timestamp;P1;durP1;ratioP1;P2;durP2;ratioP2
45382;SDS011;42455;51.660;5.824;2023-04-30T00:04:05;11.0;;;10.0;;
45382;SDS011;42455;51.660;5.824;2023-04-30T00:09:11;11.0;;;10.0;;
45382;SDS011;42455;51.660;5.824;2023-04-30T00:14:17;11.0;;;10.0;;
45382;SDS011;42455;51.660;5.824;2023-04-30T00:19:23;10.0;;;9.0;;
45382;SDS011;42455;51.660;5.824;2023-04-30T00:24:29;11.0;;;10.0;;
45382;SDS011;42455;51.660;5.824;2023-04-30T00:29:36;11.0;;;10.0;;
45382;SDS011;42455;51.660;5.824;2023-04-30T00:34:42;10.0;;;9.0;;
45382;SDS011;42455;51.660;5.824;2023-04-30T00:39:48;10.0;;;9.0;;
45382;SDS011;42455;51.660;5.824;2023-04-30T00:44:54;10.0;;;9.0;;
45382;SDS011;42455;51.660;5.824;2023-04-30T00:50:00;10.0;;;9.0;;
45382;SDS011;42455;51.660;5.824;2023-04-30T00:55:07;10.0;;;9.0;;
45382;SDS011;42455;51.660;5.824;2023-04-30T01:00:13;10.0;;;9.0;;
45382;SDS011;42455;51.660;5.824;2023-04-30T01:05:18;10.0;;;9.0;;
45382;SDS011;42455;51.660;5.824;2023-04-30T01:10:25;10.0;;;9.0;;
45382;SDS011;42455;51.660;5.824;2023-04-30T01:15:46;10.0;;;9.0;;
45382;SDS011;42455;51.660;5.824;2023-04-30T01:20:36;10.0;;;9.0;;
45382;SDS011;42455;51.660;5.824;2023-04-30T01:27:14;9.0;;;8.0;;
45382;SDS011;42455;51.660;5.824;2023-04-30T01:30:48;10.0;;;9.0;;
45382;SDS011;42455;51.660;5.824;2023-04-30T01:36:17;10.0;;;9.0;;
45382;SDS011;42455;51.660;5.824;2023-04-30T01:41:25;11.0;;;9.0;;
45382;SDS011;42455;51.660;5.824;2023-04-30T01:46:30;10.0;;;9.0;;
45382;SDS011;42455;51.660;5.824;2023-04-30T01:51:41;11.0;;;10.0;;
45382;SDS011;42455;51.660;5.824;2023-04-30T01:56:27;11.0;;;10.0;;
45382;SDS011;42455;51.660;5.824;2023-04-30T02:01:31;10.0;;;9.0;;
45382;SDS011;42455;51.660;5.824;2023-04-30T02:06:32;10.0;;;9.0;;
45382;SDS011;42455;51.660;5.824;2023-04-30T02:11:38;10.0;;;9.0;;
45382;SDS011;42455;51.660;5.824;2023-04-30T02:16:44;10.5;;;9.0;;
45382;SDS011;42455;51.660;5.824;2023-04-30T02:21:50;11.0;;;9.5;;
45382;SDS011;42455;51.660;5.824;2023-04-30T02:26:57;12.0;;;9.5;;
45382;SDS011;42455;51.660;5.824;2023-04-30T02:32:03;11.0;;;10.0;;
45382;SDS011;42455;51.660;5.824;2023-04-30T02:37:09;11.0;;;10.0;;
45382;SDS011;42455;51.660;5.824;2023-04-30T02:42:15;12.0;;;11.0;;
45382;SDS011;42455;51.660;5.824;2023-04-30T02:47:21;10.0;;;9.0;;
45382;SDS011;42455;51.660;5.824;2023-04-30T02:52:27;10.0;;;9.0;;
45382;SDS011;42455;51.660;5.824;2023-04-30T02:57:34;12.0;;;11.0;;
45382;SDS011;42455;51.660;5.824;2023-04-30T03:02:39;12.0;;;11.0;;
45382;SDS011;42455;51.660;5.824;2023-04-30T03:07:45;13.0;;;11.0;;
45382;SDS011;42455;51.660;5.824;2023-04-30T03:12:51;11.5;;;10.0;;
45382;SDS011;42455;51.660;5.824;2023-04-30T03:17:58;12.0;;;10.5;;
45382;SDS011;42455;51.660;5.824;2023-04-30T03:23:04;12.0;;;10.0;;
45382;SDS011;42455;51.660;5.824;2023-04-30T03:28:10;12.0;;;11.0;;
45382;SDS011;42455;51.660;5.824;2023-04-30T03:33:16;12.0;;;11.0;;
45382;SDS011;42455;51.660;5.824;2023-04-30T03:38:22;12.0;;;10.5;;
45382;SDS011;42455;51.660;5.824;2023-04-30T03:43:29;11.5;;;10.0;;
45382;SDS011;42455;51.660;5.824;2023-04-30T03:48:35;12.0;;;11.0;;
45382;SDS011;42455;51.660;5.824;2023-04-30T03:53:41;12.0;;;11.0;;
45382;SDS011;42455;51.660;5.824;2023-04-30T03:58:47;13.0;;;11.0;;
45382;SDS011;42455;51.660;5.824;2023-04-30T04:03:53;13.0;;;12.0;;
45382;SDS011;42455;51.660;5.824;2023-04-30T04:09:00;13.0;;;12.0;;
45382;SDS011;42455;51.660;5.824;2023-04-30T04:14:06;12.0;;;11.0;;
45382;SDS011;42455;51.660;5.824;2023-04-30T04:19:12;13.0;;;11.5;;
45382;SDS011;42455;51.660;5.824;2023-04-30T04:24:18;14.0;;;12.0;;
45382;SDS011;42455;51.660;5.824;2023-04-30T04:29:24;14.0;;;13.0;;
45382;SDS011;42455;51.660;5.824;2023-04-30T04:34:31;14.0;;;12.0;;
45382;SDS011;42455;51.660;5.824;2023-04-30T04:39:37;14.0;;;13.0;;
45382;SDS011;42455;51.660;5.824;2023-04-30T04:44:43;14.0;;;13.0;;
45382;SDS011;42455;51.660;5.824;2023-04-30T04:49:48;15.0;;;14.0;;
45382;SDS011;42455;51.660;5.824;2023-04-30T04:54:54;15.0;;;13.0;;
45382;SDS011;42455;51.660;5.824;2023-04-30T05:00:00;15.0;;;14.0;;
45382;SDS011;42455;51.660;5.824;2023-04-30T05:05:06;15.0;;;14.0;;
45382;SDS011;42455;51.660;5.824;2023-04-30T05:10:11;14.0;;;13.0;;
45382;SDS011;42455;51.660;5.824;2023-04-30T05:15:17;17.0;;;15.0;;
45382;SDS011;42455;51.660;5.824;2023-04-30T05:20:24;18.5;;;16.5;;
45382;SDS011;42455;51.660;5.824;2023-04-30T05:25:30;17.0;;;15.0;;
45382;SDS011;42455;51.660;5.824;2023-04-30T05:30:36;18.0;;;16.0;;
45382;SDS011;42455;51.660;5.824;2023-04-30T05:35:42;17.0;;;15.0;;
45382;SDS011;42455;51.660;5.824;2023-04-30T05:40:48;17.0;;;15.0;;
45382;SDS011;42455;51.660;5.824;2023-04-30T05:45:55;17.0;;;15.0;;
45382;SDS011;42455;51.660;5.824;2023-04-30T05:51:01;17.0;;;15.0;;
45382;SDS011;42455;51.660;5.824;2023-04-30T05:56:07;18.0;;;16.0;;
45382;SDS011;42455;51.660;5.824;2023-04-30T06:01:13;17.0;;;16.0;;
45382;SDS011;42455;51.660;5.824;2023-04-30T06:06:20;16.5;;;15.0;;
45382;SDS011;42455;51.660;5.824;2023-04-30T06:11:26;15.0;;;14.0;;
45382;SDS011;42455;51.660;5.824;2023-04-30T06:16:32;15.0;;;13.0;;
45382;SDS011;42455;51.660;5.824;2023-04-30T06:21:38;14.0;;;13.0;;
45382;SDS011;42455;51.660;5.824;2023-04-30T06:26:44;13.0;;;12.0;;
45382;SDS011;42455;51.660;5.824;2023-04-30T06:31:51;12.0;;;11.0;;
45382;SDS011;42455;51.660;5.824;2023-04-30T06:36:57;12.0;;;11.0;;
45382;SDS011;42455;51.660;5.824;2023-04-30T06:42:03;13.0;;;11.0;;
45382;SDS011;42455;51.660;5.824;2023-04-30T06:47:09;12.0;;;11.0;;
45382;SDS011;42455;51.660;5.824;2023-04-30T06:52:15;12.0;;;11.0;;
45382;SDS011;42455;51.660;5.824;2023-04-30T06:57:21;12.0;;;11.0;;
45382;SDS011;42455;51.660;5.824;2023-04-30T07:02:27;11.0;;;10.0;;
45382;SDS011;42455;51.660;5.824;2023-04-30T07:07:32;11.0;;;10.0;;
45382;SDS011;42455;51.660;5.824;2023-04-30T07:12:38;11.0;;;10.0;;
45382;SDS011;42455;51.660;5.824;2023-04-30T07:17:45;11.0;;;10.0;;
45382;SDS011;42455;51.660;5.824;2023-04-30T07:22:51;10.0;;;9.0;;
45382;SDS011;42455;51.660;5.824;2023-04-30T07:27:57;10.0;;;9.0;;
45382;SDS011;42455;51.660;5.824;2023-04-30T07:33:03;10.5;;;9.0;;
45382;SDS011;42455;51.660;5.824;2023-04-30T07:38:09;10.0;;;9.0;;
45382;SDS011;42455;51.660;5.824;2023-04-30T07:43:16;10.0;;;9.0;;
45382;SDS011;42455;51.660;5.824;2023-04-30T07:48:22;10.0;;;9.0;;
45382;SDS011;42455;51.660;5.824;2023-04-30T07:53:28;9.0;;;8.0;;
45382;SDS011;42455;51.660;5.824;2023-04-30T07:58:34;9.0;;;8.0;;
45382;SDS011;42455;51.660;5.824;2023-04-30T08:03:41;9.0;;;8.0;;
45382;SDS011;42455;51.660;5.824;2023-04-30T08:08:47;9.0;;;8.0;;
45382;SDS011;42455;51.660;5.824;2023-04-30T08:13:53;9.0;;;9.0;;
45382;SDS011;42455;51.660;5.824;2023-04-30T08:18:59;9.0;;;8.0;;
45382;SDS011;42455;51.660;5.824;2023-04-30T08:24:05;9.0;;;8.0;;
45382;SDS011;42455;51.660;5.824;2023-04-30T08:29:12;9.0;;;8.0;;
45382;SDS011;42455;51.660;5.824;2023-04-30T08:34:18;9.0;;;8.0;;
45382;SDS011;42455;51.660;5.824;2023-04-30T08:39:24;9.0;;;8.0;;
45382;SDS011;42455;51.660;5.824;2023-04-30T08:44:30;9.0;;;8.0;;
45382;SDS011;42455;51.660;5.824;2023-04-30T08:49:36;9.0;;;8.0;;
45382;SDS011;42455;51.660;5.824;2023-04-30T08:54:42;10.0;;;9.0;;
45382;SDS011;42455;51.660;5.824;2023-04-30T08:59:48;9.0;;;8.0;;
45382;SDS011;42455;51.660;5.824;2023-04-30T09:04:53;9.0;;;8.0;;
45382;SDS011;42455;51.660;5.824;2023-04-30T09:09:59;9.0;;;8.0;;
45382;SDS011;42455;51.660;5.824;2023-04-30T09:15:05;8.0;;;7.0;;
45382;SDS011;42455;51.660;5.824;2023-04-30T09:20:12;9.0;;;8.0;;
45382;SDS011;42455;51.660;5.824;2023-04-30T09:25:18;8.5;;;8.0;;
45382;SDS011;42455;51.660;5.824;2023-04-30T09:30:28;9.0;;;8.0;;
45382;SDS011;42455;51.660;5.824;2023-04-30T09:35:31;8.0;;;7.0;;
45382;SDS011;42455;51.660;5.824;2023-04-30T09:40:37;7.0;;;6.0;;
45382;SDS011;42455;51.660;5.824;2023-04-30T09:45:44;6.0;;;5.0;;
45382;SDS011;42455;51.660;5.824;2023-04-30T09:50:49;5.0;;;4.0;;
45382;SDS011;42455;51.660;5.824;2023-04-30T09:55:55;5.0;;;4.0;;
45382;SDS011;42455;51.660;5.824;2023-04-30T10:01:02;5.0;;;5.0;;
45382;SDS011;42455;51.660;5.824;2023-04-30T10:06:07;6.0;;;5.0;;
45382;SDS011;42455;51.660;5.824;2023-04-30T10:11:14;4.0;;;4.0;;
45382;SDS011;42455;51.660;5.824;2023-04-30T10:16:26;5.0;;;5.0;;
45382;SDS011;42455;51.660;5.824;2023-04-30T10:21:26;5.0;;;4.0;;
45382;SDS011;42455;51.660;5.824;2023-04-30T10:26:32;4.0;;;4.0;;
45382;SDS011;42455;51.660;5.824;2023-04-30T10:31:39;5.0;;;4.0;;
45382;SDS011;42455;51.660;5.824;2023-04-30T10:36:45;4.0;;;4.0;;
45382;SDS011;42455;51.660;5.824;2023-04-30T10:41:51;6.0;;;5.0;;
45382;SDS011;42455;51.660;5.824;2023-04-30T10:46:57;5.0;;;5.0;;
45382;SDS011;42455;51.660;5.824;2023-04-30T10:52:05;6.0;;;6.0;;
45382;SDS011;42455;51.660;5.824;2023-04-30T10:57:09;5.0;;;5.0;;
45382;SDS011;42455;51.660;5.824;2023-04-30T11:02:15;5.0;;;5.0;;
45382;SDS011;42455;51.660;5.824;2023-04-30T11:07:20;5.0;;;4.0;;
45382;SDS011;42455;51.660;5.824;2023-04-30T11:12:26;4.0;;;4.0;;
45382;SDS011;42455;51.660;5.824;2023-04-30T11:17:33;5.0;;;4.0;;
45382;SDS011;42455;51.660;5.824;2023-04-30T11:22:39;6.0;;;5.0;;
45382;SDS011;42455;51.660;5.824;2023-04-30T11:27:45;6.0;;;5.0;;
45382;SDS011;42455;51.660;5.824;2023-04-30T11:32:51;6.0;;;5.0;;
45382;SDS011;42455;51.660;5.824;2023-04-30T11:37:57;6.0;;;5.0;;
45382;SDS011;42455;51.660;5.824;2023-04-30T11:43:04;4.0;;;4.0;;
45382;SDS011;42455;51.660;5.824;2023-04-30T11:48:11;5.0;;;4.0;;
45382;SDS011;42455;51.660;5.824;2023-04-30T11:53:16;5.0;;;4.0;;
45382;SDS011;42455;51.660;5.824;2023-04-30T11:58:22;4.0;;;3.0;;
45382;SDS011;42455;51.660;5.824;2023-04-30T12:03:28;4.0;;;3.0;;
45382;SDS011;42455;51.660;5.824;2023-04-30T12:08:34;4.0;;;4.0;;
45382;SDS011;42455;51.660;5.824;2023-04-30T12:13:48;4.0;;;3.0;;
45382;SDS011;42455;51.660;5.824;2023-04-30T12:18:47;3.0;;;3.0;;
45382;SDS011;42455;51.660;5.824;2023-04-30T12:23:53;4.0;;;3.0;;
45382;SDS011;42455;51.660;5.824;2023-04-30T12:28:59;4.0;;;3.0;;
45382;SDS011;42455;51.660;5.824;2023-04-30T12:34:06;4.0;;;4.0;;
45382;SDS011;42455;51.660;5.824;2023-04-30T12:39:13;4.0;;;4.0;;
45382;SDS011;42455;51.660;5.824;2023-04-30T12:44:19;3.0;;;3.0;;
45382;SDS011;42455;51.660;5.824;2023-04-30T12:49:26;4.0;;;3.0;;
45382;SDS011;42455;51.660;5.824;2023-04-30T12:54:31;4.0;;;4.0;;
45382;SDS011;42455;51.660;5.824;2023-04-30T12:59:37;4.0;;;4.0;;
45382;SDS011;42455;51.660;5.824;2023-04-30T13:04:42;4.0;;;4.0;;
45382;SDS011;42455;51.660;5.824;2023-04-30T13:09:48;3.0;;;3.0;;
45382;SDS011;42455;51.660;5.824;2023-04-30T13:14:54;3.0;;;3.0;;
45382;SDS011;42455;51.660;5.824;2023-04-30T13:20:00;2.0;;;2.0;;
45382;SDS011;42455;51.660;5.824;2023-04-30T13:25:07;2.0;;;2.0;;
45382;SDS011;42455;51.660;5.824;2023-04-30T13:30:12;3.0;;;3.0;;
45382;SDS011;42455;51.660;5.824;2023-04-30T13:35:18;3.0;;;3.0;;
45382;SDS011;42455;51.660;5.824;2023-04-30T13:40:24;2.0;;;2.0;;
45382;SDS011;42455;51.660;5.824;2023-04-30T13:45:31;3.0;;;2.0;;
45382;SDS011;42455;51.660;5.824;2023-04-30T13:50:37;3.0;;;3.0;;
45382;SDS011;42455;51.660;5.824;2023-04-30T13:55:43;3.0;;;2.0;;
45382;SDS011;42455;51.660;5.824;2023-04-30T14:00:49;2.0;;;2.0;;
45382;SDS011;42455;51.660;5.824;2023-04-30T14:05:55;2.0;;;2.0;;
45382;SDS011;42455;51.660;5.824;2023-04-30T14:11:02;3.0;;;2.0;;
45382;SDS011;42455;51.660;5.824;2023-04-30T14:16:08;3.0;;;2.0;;
45382;SDS011;42455;51.660;5.824;2023-04-30T14:21:14;3.0;;;2.0;;
45382;SDS011;42455;51.660;5.824;2023-04-30T14:26:20;3.0;;;2.0;;
45382;SDS011;42455;51.660;5.824;2023-04-30T14:31:26;2.0;;;2.0;;
45382;SDS011;42455;51.660;5.824;2023-04-30T14:36:33;2.0;;;2.0;;
45382;SDS011;42455;51.660;5.824;2023-04-30T14:41:38;2.0;;;2.0;;
45382;SDS011;42455;51.660;5.824;2023-04-30T14:46:44;2.0;;;2.0;;
45382;SDS011;42455;51.660;5.824;2023-04-30T14:51:49;2.0;;;2.0;;
45382;SDS011;42455;51.660;5.824;2023-04-30T14:56:56;2.0;;;2.0;;
45382;SDS011;42455;51.660;5.824;2023-04-30T15:02:01;2.0;;;2.0;;
45382;SDS011;42455;51.660;5.824;2023-04-30T15:07:07;2.0;;;2.0;;
45382;SDS011;42455;51.660;5.824;2023-04-30T15:12:13;2.0;;;2.0;;
45382;SDS011;42455;51.660;5.824;2023-04-30T15:17:20;2.0;;;2.0;;
45382;SDS011;42455;51.660;5.824;2023-04-30T15:22:26;2.0;;;2.0;;
45382;SDS011;42455;51.660;5.824;2023-04-30T15:27:32;3.0;;;2.0;;
45382;SDS011;42455;51.660;5.824;2023-04-30T15:32:38;3.0;;;2.0;;
45382;SDS011;42455;51.660;5.824;2023-04-30T15:37:44;1.0;;;1.0;;
45382;SDS011;42455;51.660;5.824;2023-04-30T15:42:50;2.0;;;1.0;;
45382;SDS011;42455;51.660;5.824;2023-04-30T15:47:57;2.0;;;1.0;;
45382;SDS011;42455;51.660;5.824;2023-04-30T15:53:03;2.0;;;1.0;;
45382;SDS011;42455;51.660;5.824;2023-04-30T15:58:09;2.0;;;1.0;;
45382;SDS011;42455;51.660;5.824;2023-04-30T16:03:15;1.0;;;1.0;;
45382;SDS011;42455;51.660;5.824;2023-04-30T16:08:21;2.0;;;1.0;;
45382;SDS011;42455;51.660;5.824;2023-04-30T16:13:28;2.0;;;1.0;;
45382;SDS011;42455;51.660;5.824;2023-04-30T16:18:34;1.5;;;1.0;;
45382;SDS011;42455;51.660;5.824;2023-04-30T16:23:40;2.0;;;1.0;;
45382;SDS011;42455;51.660;5.824;2023-04-30T16:28:46;2.0;;;1.0;;
45382;SDS011;42455;51.660;5.824;2023-04-30T16:33:53;2.0;;;1.0;;
45382;SDS011;42455;51.660;5.824;2023-04-30T16:38:59;2.0;;;1.0;;
45382;SDS011;42455;51.660;5.824;2023-04-30T16:44:05;1.0;;;1.0;;
45382;SDS011;42455;51.660;5.824;2023-04-30T16:49:10;1.0;;;1.0;;
45382;SDS011;42455;51.660;5.824;2023-04-30T16:54:16;2.0;;;1.0;;
45382;SDS011;42455;51.660;5.824;2023-04-30T16:59:22;2.0;;;1.0;;
45382;SDS011;42455;51.660;5.824;2023-04-30T17:04:28;2.0;;;1.0;;
45382;SDS011;42455;51.660;5.824;2023-04-30T17:09:34;1.0;;;1.0;;
45382;SDS011;42455;51.660;5.824;2023-04-30T17:14:40;1.0;;;1.0;;
45382;SDS011;42455;51.660;5.824;2023-04-30T17:19:46;1.0;;;1.0;;
45382;SDS011;42455;51.660;5.824;2023-04-30T17:24:53;1.0;;;1.0;;
45382;SDS011;42455;51.660;5.824;2023-04-30T17:29:59;2.0;;;1.0;;
45382;SDS011;42455;51.660;5.824;2023-04-30T17:35:05;1.0;;;1.0;;
45382;SDS011;42455;51.660;5.824;2023-04-30T17:40:12;3.0;;;1.0;;
45382;SDS011;42455;51.660;5.824;2023-04-30T17:45:18;1.0;;;1.0;;
45382;SDS011;42455;51.660;5.824;2023-04-30T17:50:24;2.0;;;1.0;;
45382;SDS011;42455;51.660;5.824;2023-04-30T17:55:30;1.0;;;1.0;;
45382;SDS011;42455;51.660;5.824;2023-04-30T18:00:36;2.0;;;1.0;;
45382;SDS011;42455;51.660;5.824;2023-04-30T18:05:42;1.0;;;1.0;;
45382;SDS011;42455;51.660;5.824;2023-04-30T18:10:49;2.0;;;1.0;;
45382;SDS011;42455;51.660;5.824;2023-04-30T18:15:55;1.0;;;1.0;;
45382;SDS011;42455;51.660;5.824;2023-04-30T18:21:01;2.0;;;1.0;;
45382;SDS011;42455;51.660;5.824;2023-04-30T18:26:07;1.0;;;1.0;;
45382;SDS011;42455;51.660;5.824;2023-04-30T18:31:13;1.0;;;1.0;;
45382;SDS011;42455;51.660;5.824;2023-04-30T18:36:20;3.0;;;1.0;;
45382;SDS011;42455;51.660;5.824;2023-04-30T18:41:26;2.0;;;1.0;;
45382;SDS011;42455;51.660;5.824;2023-04-30T18:46:31;3.0;;;1.0;;
45382;SDS011;42455;51.660;5.824;2023-04-30T18:51:37;2.0;;;1.0;;
45382;SDS011;42455;51.660;5.824;2023-04-30T18:56:43;1.0;;;1.0;;
45382;SDS011;42455;51.660;5.824;2023-04-30T19:01:49;2.0;;;1.0;;
45382;SDS011;42455;51.660;5.824;2023-04-30T19:06:55;2.0;;;1.0;;
45382;SDS011;42455;51.660;5.824;2023-04-30T19:12:01;2.0;;;1.0;;
45382;SDS011;42455;51.660;5.824;2023-04-30T19:17:07;2.0;;;2.0;;
45382;SDS011;42455;51.660;5.824;2023-04-30T19:22:14;2.0;;;2.0;;
45382;SDS011;42455;51.660;5.824;2023-04-30T19:27:20;2.0;;;1.0;;
45382;SDS011;42455;51.660;5.824;2023-04-30T19:32:26;2.0;;;1.0;;
45382;SDS011;42455;51.660;5.824;2023-04-30T19:37:32;2.0;;;1.0;;
45382;SDS011;42455;51.660;5.824;2023-04-30T19:42:38;2.0;;;2.0;;
45382;SDS011;42455;51.660;5.824;2023-04-30T19:47:45;2.0;;;1.0;;
45382;SDS011;42455;51.660;5.824;2023-04-30T19:52:51;3.0;;;2.0;;
45382;SDS011;42455;51.660;5.824;2023-04-30T19:57:57;3.0;;;2.0;;
45382;SDS011;42455;51.660;5.824;2023-04-30T20:03:03;2.0;;;2.0;;
45382;SDS011;42455;51.660;5.824;2023-04-30T20:08:09;2.0;;;2.0;;
45382;SDS011;42455;51.660;5.824;2023-04-30T20:13:16;2.0;;;2.0;;
45382;SDS011;42455;51.660;5.824;2023-04-30T20:18:22;2.0;;;2.0;;
45382;SDS011;42455;51.660;5.824;2023-04-30T20:23:28;4.0;;;2.0;;
45382;SDS011;42455;51.660;5.824;2023-04-30T20:28:34;3.0;;;2.0;;
45382;SDS011;42455;51.660;5.824;2023-04-30T20:33:40;3.0;;;2.0;;
45382;SDS011;42455;51.660;5.824;2023-04-30T20:38:47;3.0;;;2.0;;
45382;SDS011;42455;51.660;5.824;2023-04-30T20:43:52;3.0;;;2.0;;
45382;SDS011;42455;51.660;5.824;2023-04-30T20:48:58;2.0;;;2.0;;
45382;SDS011;42455;51.660;5.824;2023-04-30T20:54:03;3.0;;;2.0;;
45382;SDS011;42455;51.660;5.824;2023-04-30T20:59:10;3.0;;;2.0;;
45382;SDS011;42455;51.660;5.824;2023-04-30T21:04:16;3.0;;;2.0;;
45382;SDS011;42455;51.660;5.824;2023-04-30T21:09:22;3.0;;;2.0;;
45382;SDS011;42455;51.660;5.824;2023-04-30T21:14:28;3.0;;;2.5;;
45382;SDS011;42455;51.660;5.824;2023-04-30T21:19:34;4.0;;;3.0;;
45382;SDS011;42455;51.660;5.824;2023-04-30T21:24:41;4.0;;;3.0;;
45382;SDS011;42455;51.660;5.824;2023-04-30T21:29:47;3.0;;;3.0;;
45382;SDS011;42455;51.660;5.824;2023-04-30T21:34:53;3.0;;;3.0;;
45382;SDS011;42455;51.660;5.824;2023-04-30T21:39:59;4.0;;;3.0;;
45382;SDS011;42455;51.660;5.824;2023-04-30T21:45:05;3.0;;;3.0;;
45382;SDS011;42455;51.660;5.824;2023-04-30T21:50:12;4.0;;;2.0;;
45382;SDS011;42455;51.660;5.824;2023-04-30T21:55:18;4.0;;;3.0;;
45382;SDS011;42455;51.660;5.824;2023-04-30T22:00:24;3.0;;;3.0;;
45382;SDS011;42455;51.660;5.824;2023-04-30T22:05:30;3.0;;;2.0;;
45382;SDS011;42455;51.660;5.824;2023-04-30T22:10:36;3.0;;;3.0;;
45382;SDS011;42455;51.660;5.824;2023-04-30T22:15:43;3.0;;;2.0;;
45382;SDS011;42455;51.660;5.824;2023-04-30T22:20:49;4.0;;;3.0;;
45382;SDS011;42455;51.660;5.824;2023-04-30T22:25:55;4.0;;;3.0;;
45382;SDS011;42455;51.660;5.824;2023-04-30T22:31:01;4.0;;;3.0;;
45382;SDS011;42455;51.660;5.824;2023-04-30T22:36:08;4.0;;;3.0;;
45382;SDS011;42455;51.660;5.824;2023-04-30T22:41:13;4.0;;;3.0;;
45382;SDS011;42455;51.660;5.824;2023-04-30T22:46:19;5.0;;;3.0;;
45382;SDS011;42455;51.660;5.824;2023-04-30T22:51:25;4.0;;;3.0;;
45382;SDS011;42455;51.660;5.824;2023-04-30T22:56:30;4.0;;;3.0;;
45382;SDS011;42455;51.660;5.824;2023-04-30T23:01:37;4.0;;;3.0;;
45382;SDS011;42455;51.660;5.824;2023-04-30T23:06:43;4.0;;;3.0;;
45382;SDS011;42455;51.660;5.824;2023-04-30T23:11:49;4.0;;;3.0;;
45382;SDS011;42455;51.660;5.824;2023-04-30T23:16:55;5.0;;;3.0;;
45382;SDS011;42455;51.660;5.824;2023-04-30T23:22:02;4.0;;;3.0;;
45382;SDS011;42455;51.660;5.824;2023-04-30T23:27:08;3.0;;;3.0;;
45382;SDS011;42455;51.660;5.824;2023-04-30T23:32:14;5.0;;;3.0;;
45382;SDS011;42455;51.660;5.824;2023-04-30T23:37:20;4.0;;;3.0;;
45382;SDS011;42455;51.660;5.824;2023-04-30T23:42:26;4.0;;;3.0;;
45382;SDS011;42455;51.660;5.824;2023-04-30T23:47:33;4.0;;;3.0;;
45382;SDS011;42455;51.660;5.824;2023-04-30T23:52:39;4.0;;;3.0;;
45382;SDS011;42455;51.660;5.824;2023-04-30T23:57:45;4.0;;;3.0;;
